sensor_id;sensor_type;location;lat;lon;timestamp;P1;durP1;ratioP1;P2;durP2;ratioP2
31652;SDS011;18261;53.648;9.910;2022-09-16T00:00:00;15.48;;;2.28;;
31652;SDS011;18261;53.648;9.910;2022-09-16T00:02:26;12.45;;;2.00;;
31652;SDS011;18261;53.648;9.910;2022-09-16T00:04:52;12.63;;;2.00;;
31652;SDS011;18261;53.648;9.910;2022-09-16T00:07:18;16.92;;;2.20;;
31652;SDS011;18261;53.648;9.910;2022-09-16T00:09:44;10.05;;;1.95;;
31652;SDS011;18261;53.648;9.910;2022-09-16T00:12:10;14.13;;;2.30;;
31652;SDS011;18261;53.648;9.910;2022-09-16T00:14:36;19.83;;;4.60;;
31652;SDS011;18261;53.648;9.910;2022-09-16T00:17:02;11.55;;;2.13;;
31652;SDS011;18261;53.648;9.910;2022-09-16T00:19:28;10.07;;;2.28;;
31652;SDS011;18261;53.648;9.910;2022-09-16T00:21:54;14.30;;;2.00;;
31652;SDS011;18261;53.648;9.910;2022-09-16T00:24:20;10.90;;;3.40;;
31652;SDS011;18261;53.648;9.910;2022-09-16T00:26:46;14.73;;;3.20;;
31652;SDS011;18261;53.648;9.910;2022-09-16T00:29:12;12.52;;;2.17;;
31652;SDS011;18261;53.648;9.910;2022-09-16T00:31:38;13.35;;;2.20;;
31652;SDS011;18261;53.648;9.910;2022-09-16T00:34:04;14.73;;;2.08;;
31652;SDS011;18261;53.648;9.910;2022-09-16T00:36:30;15.85;;;2.08;;
31652;SDS011;18261;53.648;9.910;2022-09-16T00:38:56;20.60;;;2.67;;
31652;SDS011;18261;53.648;9.910;2022-09-16T00:41:23;15.00;;;2.20;;
31652;SDS011;18261;53.648;9.910;2022-09-16T00:46:20;12.38;;;2.22;;
31652;SDS011;18261;53.648;9.910;2022-09-16T00:48:47;18.05;;;2.58;;
31652;SDS011;18261;53.648;9.910;2022-09-16T00:51:14;10.40;;;1.67;;
31652;SDS011;18261;53.648;9.910;2022-09-16T00:53:45;13.18;;;1.75;;
31652;SDS011;18261;53.648;9.910;2022-09-16T00:56:13;7.43;;;1.40;;
31652;SDS011;18261;53.648;9.910;2022-09-16T00:58:43;8.55;;;1.73;;
31652;SDS011;18261;53.648;9.910;2022-09-16T01:01:09;8.55;;;1.75;;
31652;SDS011;18261;53.648;9.910;2022-09-16T01:03:44;9.52;;;1.90;;
31652;SDS011;18261;53.648;9.910;2022-09-16T01:06:10;5.70;;;1.52;;
31652;SDS011;18261;53.648;9.910;2022-09-16T01:08:38;9.55;;;1.73;;
31652;SDS011;18261;53.648;9.910;2022-09-16T01:11:04;7.47;;;1.67;;
31652;SDS011;18261;53.648;9.910;2022-09-16T01:13:30;16.10;;;2.03;;
31652;SDS011;18261;53.648;9.910;2022-09-16T01:16:06;10.65;;;2.08;;
31652;SDS011;18261;53.648;9.910;2022-09-16T01:18:43;14.93;;;2.20;;
31652;SDS011;18261;53.648;9.910;2022-09-16T01:29:03;12.30;;;1.63;;
31652;SDS011;18261;53.648;9.910;2022-09-16T01:31:39;10.98;;;2.13;;
31652;SDS011;18261;53.648;9.910;2022-09-16T01:41:47;9.77;;;1.90;;
31652;SDS011;18261;53.648;9.910;2022-09-16T01:49:40;13.88;;;2.00;;
31652;SDS011;18261;53.648;9.910;2022-09-16T01:54:40;16.67;;;2.47;;
31652;SDS011;18261;53.648;9.910;2022-09-16T01:57:12;17.30;;;2.35;;
31652;SDS011;18261;53.648;9.910;2022-09-16T01:59:41;10.02;;;1.73;;
31652;SDS011;18261;53.648;9.910;2022-09-16T02:02:14;12.55;;;2.20;;
31652;SDS011;18261;53.648;9.910;2022-09-16T02:04:43;13.35;;;2.20;;
31652;SDS011;18261;53.648;9.910;2022-09-16T02:07:10;9.10;;;2.00;;
31652;SDS011;18261;53.648;9.910;2022-09-16T02:09:38;11.43;;;2.45;;
31652;SDS011;18261;53.648;9.910;2022-09-16T02:12:06;16.77;;;2.50;;
31652;SDS011;18261;53.648;9.910;2022-09-16T02:14:35;10.27;;;2.42;;
31652;SDS011;18261;53.648;9.910;2022-09-16T02:17:06;9.48;;;1.80;;
31652;SDS011;18261;53.648;9.910;2022-09-16T02:19:56;8.02;;;2.20;;
31652;SDS011;18261;53.648;9.910;2022-09-16T02:22:25;8.40;;;2.00;;
31652;SDS011;18261;53.648;9.910;2022-09-16T02:24:54;12.77;;;2.40;;
31652;SDS011;18261;53.648;9.910;2022-09-16T02:27:20;18.45;;;2.47;;
31652;SDS011;18261;53.648;9.910;2022-09-16T02:29:51;15.85;;;2.45;;
31652;SDS011;18261;53.648;9.910;2022-09-16T02:32:19;15.32;;;2.30;;
31652;SDS011;18261;53.648;9.910;2022-09-16T02:34:48;12.15;;;1.98;;
31652;SDS011;18261;53.648;9.910;2022-09-16T02:37:19;13.98;;;2.33;;
31652;SDS011;18261;53.648;9.910;2022-09-16T02:39:47;20.63;;;2.63;;
31652;SDS011;18261;53.648;9.910;2022-09-16T02:42:14;13.13;;;2.15;;
31652;SDS011;18261;53.648;9.910;2022-09-16T02:44:41;10.73;;;2.53;;
31652;SDS011;18261;53.648;9.910;2022-09-16T02:47:10;12.57;;;2.20;;
31652;SDS011;18261;53.648;9.910;2022-09-16T02:52:17;15.63;;;2.58;;
31652;SDS011;18261;53.648;9.910;2022-09-16T02:54:52;13.85;;;2.50;;
31652;SDS011;18261;53.648;9.910;2022-09-16T02:57:20;16.10;;;2.17;;
31652;SDS011;18261;53.648;9.910;2022-09-16T02:59:46;24.73;;;2.92;;
31652;SDS011;18261;53.648;9.910;2022-09-16T03:02:13;12.40;;;2.13;;
31652;SDS011;18261;53.648;9.910;2022-09-16T03:04:39;13.27;;;2.08;;
31652;SDS011;18261;53.648;9.910;2022-09-16T03:07:05;13.85;;;2.35;;
31652;SDS011;18261;53.648;9.910;2022-09-16T03:09:33;14.65;;;2.50;;
31652;SDS011;18261;53.648;9.910;2022-09-16T03:15:02;12.93;;;1.98;;
31652;SDS011;18261;53.648;9.910;2022-09-16T03:27:50;7.80;;;1.70;;
31652;SDS011;18261;53.648;9.910;2022-09-16T03:30:16;13.38;;;2.67;;
31652;SDS011;18261;53.648;9.910;2022-09-16T03:32:43;12.68;;;2.72;;
31652;SDS011;18261;53.648;9.910;2022-09-16T03:35:11;15.93;;;2.08;;
31652;SDS011;18261;53.648;9.910;2022-09-16T03:37:38;9.50;;;1.98;;
31652;SDS011;18261;53.648;9.910;2022-09-16T03:40:09;11.07;;;2.45;;
31652;SDS011;18261;53.648;9.910;2022-09-16T03:42:40;17.98;;;2.55;;
31652;SDS011;18261;53.648;9.910;2022-09-16T03:45:08;14.05;;;2.30;;
31652;SDS011;18261;53.648;9.910;2022-09-16T03:47:34;15.20;;;1.90;;
31652;SDS011;18261;53.648;9.910;2022-09-16T03:50:00;14.18;;;1.73;;
31652;SDS011;18261;53.648;9.910;2022-09-16T03:52:27;16.52;;;2.88;;
31652;SDS011;18261;53.648;9.910;2022-09-16T03:54:53;11.90;;;2.50;;
31652;SDS011;18261;53.648;9.910;2022-09-16T03:57:19;13.90;;;2.67;;
31652;SDS011;18261;53.648;9.910;2022-09-16T03:59:45;14.55;;;3.60;;
31652;SDS011;18261;53.648;9.910;2022-09-16T04:02:11;14.57;;;2.70;;
31652;SDS011;18261;53.648;9.910;2022-09-16T04:04:37;14.82;;;2.33;;
31652;SDS011;18261;53.648;9.910;2022-09-16T04:07:03;16.60;;;2.13;;
31652;SDS011;18261;53.648;9.910;2022-09-16T04:09:29;16.35;;;2.22;;
31652;SDS011;18261;53.648;9.910;2022-09-16T04:11:55;16.80;;;3.10;;
31652;SDS011;18261;53.648;9.910;2022-09-16T04:14:21;14.50;;;1.70;;
31652;SDS011;18261;53.648;9.910;2022-09-16T04:16:47;13.35;;;2.22;;
31652;SDS011;18261;53.648;9.910;2022-09-16T04:19:13;17.83;;;2.30;;
31652;SDS011;18261;53.648;9.910;2022-09-16T04:21:39;10.80;;;1.90;;
31652;SDS011;18261;53.648;9.910;2022-09-16T04:24:05;16.00;;;2.20;;
31652;SDS011;18261;53.648;9.910;2022-09-16T04:26:31;16.25;;;1.83;;
31652;SDS011;18261;53.648;9.910;2022-09-16T04:28:57;20.88;;;2.55;;
31652;SDS011;18261;53.648;9.910;2022-09-16T04:31:23;10.00;;;2.40;;
31652;SDS011;18261;53.648;9.910;2022-09-16T04:33:49;18.27;;;2.80;;
31652;SDS011;18261;53.648;9.910;2022-09-16T04:36:16;8.70;;;1.88;;
31652;SDS011;18261;53.648;9.910;2022-09-16T04:38:43;11.52;;;2.55;;
31652;SDS011;18261;53.648;9.910;2022-09-16T04:41:16;14.25;;;2.33;;
31652;SDS011;18261;53.648;9.910;2022-09-16T04:43:42;15.32;;;2.63;;
31652;SDS011;18261;53.648;9.910;2022-09-16T04:46:09;8.95;;;1.80;;
31652;SDS011;18261;53.648;9.910;2022-09-16T04:48:35;11.70;;;2.28;;
31652;SDS011;18261;53.648;9.910;2022-09-16T04:51:04;12.75;;;2.70;;
31652;SDS011;18261;53.648;9.910;2022-09-16T04:53:30;11.55;;;2.55;;
31652;SDS011;18261;53.648;9.910;2022-09-16T04:56:07;14.43;;;1.95;;
31652;SDS011;18261;53.648;9.910;2022-09-16T04:58:34;9.80;;;2.15;;
31652;SDS011;18261;53.648;9.910;2022-09-16T05:01:04;11.70;;;2.13;;
31652;SDS011;18261;53.648;9.910;2022-09-16T05:03:30;9.25;;;1.70;;
31652;SDS011;18261;53.648;9.910;2022-09-16T05:06:03;12.90;;;1.80;;
31652;SDS011;18261;53.648;9.910;2022-09-16T05:08:29;7.75;;;1.70;;
31652;SDS011;18261;53.648;9.910;2022-09-16T05:11:01;8.55;;;1.80;;
31652;SDS011;18261;53.648;9.910;2022-09-16T05:13:26;16.45;;;2.20;;
31652;SDS011;18261;53.648;9.910;2022-09-16T05:15:52;15.15;;;2.20;;
31652;SDS011;18261;53.648;9.910;2022-09-16T05:18:18;20.25;;;2.80;;
31652;SDS011;18261;53.648;9.910;2022-09-16T05:20:44;14.05;;;2.22;;
31652;SDS011;18261;53.648;9.910;2022-09-16T05:23:10;12.68;;;2.40;;
31652;SDS011;18261;53.648;9.910;2022-09-16T05:25:36;22.42;;;2.42;;
31652;SDS011;18261;53.648;9.910;2022-09-16T05:28:02;9.70;;;1.85;;
31652;SDS011;18261;53.648;9.910;2022-09-16T05:30:28;11.95;;;2.63;;
31652;SDS011;18261;53.648;9.910;2022-09-16T05:32:54;15.65;;;2.65;;
31652;SDS011;18261;53.648;9.910;2022-09-16T05:35:20;11.65;;;2.00;;
31652;SDS011;18261;53.648;9.910;2022-09-16T05:37:46;16.42;;;2.25;;
31652;SDS011;18261;53.648;9.910;2022-09-16T05:40:14;15.40;;;2.97;;
31652;SDS011;18261;53.648;9.910;2022-09-16T05:42:40;16.23;;;2.53;;
31652;SDS011;18261;53.648;9.910;2022-09-16T05:45:06;10.07;;;1.88;;
31652;SDS011;18261;53.648;9.910;2022-09-16T05:47:32;20.58;;;2.70;;
31652;SDS011;18261;53.648;9.910;2022-09-16T05:49:58;11.60;;;1.92;;
31652;SDS011;18261;53.648;9.910;2022-09-16T05:52:25;15.10;;;2.45;;
31652;SDS011;18261;53.648;9.910;2022-09-16T05:54:51;8.55;;;1.67;;
31652;SDS011;18261;53.648;9.910;2022-09-16T05:57:17;13.90;;;1.95;;
31652;SDS011;18261;53.648;9.910;2022-09-16T05:59:43;14.68;;;2.13;;
31652;SDS011;18261;53.648;9.910;2022-09-16T06:02:09;10.60;;;1.90;;
31652;SDS011;18261;53.648;9.910;2022-09-16T06:04:36;17.02;;;2.22;;
31652;SDS011;18261;53.648;9.910;2022-09-16T06:07:02;15.10;;;1.88;;
31652;SDS011;18261;53.648;9.910;2022-09-16T06:09:29;20.73;;;2.22;;
31652;SDS011;18261;53.648;9.910;2022-09-16T06:11:55;12.27;;;2.15;;
31652;SDS011;18261;53.648;9.910;2022-09-16T06:14:21;16.42;;;2.03;;
31652;SDS011;18261;53.648;9.910;2022-09-16T06:16:47;14.45;;;2.28;;
31652;SDS011;18261;53.648;9.910;2022-09-16T06:19:14;14.65;;;2.55;;
31652;SDS011;18261;53.648;9.910;2022-09-16T06:21:41;18.35;;;2.72;;
31652;SDS011;18261;53.648;9.910;2022-09-16T06:24:08;17.42;;;2.53;;
31652;SDS011;18261;53.648;9.910;2022-09-16T06:26:35;19.60;;;2.90;;
31652;SDS011;18261;53.648;9.910;2022-09-16T06:29:01;13.77;;;2.00;;
31652;SDS011;18261;53.648;9.910;2022-09-16T06:31:27;15.00;;;2.55;;
31652;SDS011;18261;53.648;9.910;2022-09-16T06:33:53;12.35;;;1.80;;
31652;SDS011;18261;53.648;9.910;2022-09-16T06:36:20;25.13;;;2.65;;
31652;SDS011;18261;53.648;9.910;2022-09-16T06:38:46;12.60;;;2.35;;
31652;SDS011;18261;53.648;9.910;2022-09-16T06:41:13;17.17;;;2.10;;
31652;SDS011;18261;53.648;9.910;2022-09-16T06:43:39;13.40;;;2.22;;
31652;SDS011;18261;53.648;9.910;2022-09-16T06:46:06;15.73;;;2.25;;
31652;SDS011;18261;53.648;9.910;2022-09-16T06:48:40;16.10;;;2.25;;
31652;SDS011;18261;53.648;9.910;2022-09-16T06:51:08;16.67;;;2.63;;
31652;SDS011;18261;53.648;9.910;2022-09-16T06:53:34;12.50;;;2.00;;
31652;SDS011;18261;53.648;9.910;2022-09-16T06:56:05;18.27;;;2.05;;
31652;SDS011;18261;53.648;9.910;2022-09-16T06:58:31;12.93;;;2.33;;
31652;SDS011;18261;53.648;9.910;2022-09-16T07:00:58;22.75;;;2.75;;
31652;SDS011;18261;53.648;9.910;2022-09-16T07:03:24;15.82;;;2.25;;
31652;SDS011;18261;53.648;9.910;2022-09-16T07:05:56;16.95;;;2.58;;
31652;SDS011;18261;53.648;9.910;2022-09-16T07:08:22;17.95;;;1.90;;
31652;SDS011;18261;53.648;9.910;2022-09-16T07:10:58;23.08;;;2.25;;
31652;SDS011;18261;53.648;9.910;2022-09-16T07:13:25;20.05;;;3.00;;
31652;SDS011;18261;53.648;9.910;2022-09-16T07:15:52;11.90;;;2.20;;
31652;SDS011;18261;53.648;9.910;2022-09-16T07:18:18;19.30;;;2.10;;
31652;SDS011;18261;53.648;9.910;2022-09-16T07:20:44;14.63;;;2.05;;
31652;SDS011;18261;53.648;9.910;2022-09-16T07:23:10;20.08;;;2.72;;
31652;SDS011;18261;53.648;9.910;2022-09-16T07:25:36;14.20;;;2.72;;
31652;SDS011;18261;53.648;9.910;2022-09-16T07:28:02;17.05;;;2.40;;
31652;SDS011;18261;53.648;9.910;2022-09-16T07:30:28;17.23;;;2.50;;
31652;SDS011;18261;53.648;9.910;2022-09-16T07:32:55;16.20;;;2.17;;
31652;SDS011;18261;53.648;9.910;2022-09-16T07:35:21;16.35;;;2.40;;
31652;SDS011;18261;53.648;9.910;2022-09-16T07:37:47;12.93;;;2.20;;
31652;SDS011;18261;53.648;9.910;2022-09-16T07:40:13;22.05;;;2.60;;
31652;SDS011;18261;53.648;9.910;2022-09-16T07:42:39;14.65;;;2.08;;
31652;SDS011;18261;53.648;9.910;2022-09-16T07:45:06;18.05;;;2.55;;
31652;SDS011;18261;53.648;9.910;2022-09-16T07:47:32;14.63;;;2.15;;
31652;SDS011;18261;53.648;9.910;2022-09-16T07:49:58;21.08;;;2.97;;
31652;SDS011;18261;53.648;9.910;2022-09-16T07:52:24;16.77;;;2.08;;
31652;SDS011;18261;53.648;9.910;2022-09-16T07:54:53;13.77;;;2.20;;
31652;SDS011;18261;53.648;9.910;2022-09-16T07:57:19;18.38;;;2.28;;
31652;SDS011;18261;53.648;9.910;2022-09-16T07:59:46;19.05;;;2.38;;
31652;SDS011;18261;53.648;9.910;2022-09-16T08:02:12;20.23;;;3.10;;
31652;SDS011;18261;53.648;9.910;2022-09-16T08:04:38;23.77;;;2.85;;
31652;SDS011;18261;53.648;9.910;2022-09-16T08:07:04;24.45;;;2.88;;
31652;SDS011;18261;53.648;9.910;2022-09-16T08:09:30;18.30;;;3.08;;
31652;SDS011;18261;53.648;9.910;2022-09-16T08:11:57;15.60;;;2.25;;
31652;SDS011;18261;53.648;9.910;2022-09-16T08:14:23;18.35;;;2.05;;
31652;SDS011;18261;53.648;9.910;2022-09-16T08:16:49;22.58;;;2.60;;
31652;SDS011;18261;53.648;9.910;2022-09-16T08:19:15;12.95;;;1.90;;
31652;SDS011;18261;53.648;9.910;2022-09-16T08:21:41;16.60;;;2.53;;
31652;SDS011;18261;53.648;9.910;2022-09-16T08:24:07;20.17;;;2.47;;
31652;SDS011;18261;53.648;9.910;2022-09-16T08:26:34;17.73;;;2.50;;
31652;SDS011;18261;53.648;9.910;2022-09-16T08:29:00;17.77;;;2.83;;
31652;SDS011;18261;53.648;9.910;2022-09-16T08:31:26;20.80;;;3.08;;
31652;SDS011;18261;53.648;9.910;2022-09-16T08:33:52;21.77;;;2.38;;
31652;SDS011;18261;53.648;9.910;2022-09-16T08:36:19;15.65;;;2.70;;
31652;SDS011;18261;53.648;9.910;2022-09-16T08:38:46;18.83;;;2.38;;
31652;SDS011;18261;53.648;9.910;2022-09-16T08:46:38;18.52;;;2.60;;
31652;SDS011;18261;53.648;9.910;2022-09-16T08:51:39;15.25;;;2.30;;
31652;SDS011;18261;53.648;9.910;2022-09-16T08:54:08;18.90;;;2.20;;
31652;SDS011;18261;53.648;9.910;2022-09-16T08:56:36;17.75;;;2.63;;
31652;SDS011;18261;53.648;9.910;2022-09-16T08:59:03;16.02;;;2.72;;
31652;SDS011;18261;53.648;9.910;2022-09-16T09:04:00;12.57;;;1.98;;
31652;SDS011;18261;53.648;9.910;2022-09-16T09:06:33;16.20;;;2.75;;
31652;SDS011;18261;53.648;9.910;2022-09-16T09:16:52;13.90;;;2.80;;
31652;SDS011;18261;53.648;9.910;2022-09-16T09:22:10;10.15;;;1.70;;
31652;SDS011;18261;53.648;9.910;2022-09-16T09:24:42;12.70;;;2.28;;
31652;SDS011;18261;53.648;9.910;2022-09-16T09:27:30;15.27;;;2.50;;
31652;SDS011;18261;53.648;9.910;2022-09-16T09:32:46;14.85;;;2.50;;
31652;SDS011;18261;53.648;9.910;2022-09-16T09:43:13;10.20;;;1.88;;
31652;SDS011;18261;53.648;9.910;2022-09-16T09:48:32;9.50;;;1.75;;
31652;SDS011;18261;53.648;9.910;2022-09-16T09:51:01;10.15;;;2.00;;
31652;SDS011;18261;53.648;9.910;2022-09-16T09:53:38;8.82;;;2.30;;
31652;SDS011;18261;53.648;9.910;2022-09-16T09:58:40;17.92;;;2.42;;
31652;SDS011;18261;53.648;9.910;2022-09-16T10:01:08;17.40;;;2.33;;
31652;SDS011;18261;53.648;9.910;2022-09-16T10:03:35;15.35;;;2.10;;
31652;SDS011;18261;53.648;9.910;2022-09-16T10:06:02;23.67;;;2.72;;
31652;SDS011;18261;53.648;9.910;2022-09-16T10:08:35;17.05;;;3.45;;
31652;SDS011;18261;53.648;9.910;2022-09-16T10:11:13;23.25;;;3.90;;
31652;SDS011;18261;53.648;9.910;2022-09-16T10:13:46;10.25;;;2.15;;
31652;SDS011;18261;53.648;9.910;2022-09-16T10:16:13;14.25;;;2.40;;
31652;SDS011;18261;53.648;9.910;2022-09-16T10:18:39;18.05;;;2.40;;
31652;SDS011;18261;53.648;9.910;2022-09-16T10:21:06;18.58;;;2.78;;
31652;SDS011;18261;53.648;9.910;2022-09-16T10:23:33;20.83;;;2.10;;
31652;SDS011;18261;53.648;9.910;2022-09-16T10:26:19;15.57;;;2.78;;
31652;SDS011;18261;53.648;9.910;2022-09-16T10:28:55;19.65;;;2.00;;
31652;SDS011;18261;53.648;9.910;2022-09-16T10:31:22;18.02;;;3.55;;
31652;SDS011;18261;53.648;9.910;2022-09-16T10:33:49;22.67;;;2.53;;
31652;SDS011;18261;53.648;9.910;2022-09-16T10:36:22;18.42;;;2.60;;
31652;SDS011;18261;53.648;9.910;2022-09-16T10:38:56;17.00;;;2.55;;
31652;SDS011;18261;53.648;9.910;2022-09-16T10:41:24;12.23;;;2.40;;
31652;SDS011;18261;53.648;9.910;2022-09-16T10:43:51;13.02;;;2.20;;
31652;SDS011;18261;53.648;9.910;2022-09-16T10:46:18;13.80;;;2.05;;
31652;SDS011;18261;53.648;9.910;2022-09-16T10:48:44;13.63;;;2.42;;
31652;SDS011;18261;53.648;9.910;2022-09-16T10:51:24;8.75;;;2.00;;
31652;SDS011;18261;53.648;9.910;2022-09-16T10:53:51;12.50;;;2.33;;
31652;SDS011;18261;53.648;9.910;2022-09-16T10:56:19;7.55;;;1.75;;
31652;SDS011;18261;53.648;9.910;2022-09-16T10:58:46;14.18;;;2.40;;
31652;SDS011;18261;53.648;9.910;2022-09-16T11:01:18;17.95;;;2.17;;
31652;SDS011;18261;53.648;9.910;2022-09-16T11:16:43;16.25;;;2.90;;
31652;SDS011;18261;53.648;9.910;2022-09-16T11:19:24;19.38;;;2.75;;
31652;SDS011;18261;53.648;9.910;2022-09-16T11:24:50;13.85;;;2.47;;
31652;SDS011;18261;53.648;9.910;2022-09-16T11:27:23;16.60;;;2.05;;
31652;SDS011;18261;53.648;9.910;2022-09-16T11:32:36;14.35;;;2.33;;
31652;SDS011;18261;53.648;9.910;2022-09-16T11:35:14;20.23;;;2.85;;
31652;SDS011;18261;53.648;9.910;2022-09-16T11:46:19;10.90;;;1.75;;
31652;SDS011;18261;53.648;9.910;2022-09-16T11:51:36;9.10;;;2.15;;
31652;SDS011;18261;53.648;9.910;2022-09-16T11:54:31;13.27;;;2.00;;
31652;SDS011;18261;53.648;9.910;2022-09-16T11:56:52;10.95;;;2.05;;
31652;SDS011;18261;53.648;9.910;2022-09-16T11:59:23;11.00;;;2.25;;
31652;SDS011;18261;53.648;9.910;2022-09-16T12:01:52;15.15;;;2.88;;
31652;SDS011;18261;53.648;9.910;2022-09-16T12:04:22;11.85;;;2.10;;
31652;SDS011;18261;53.648;9.910;2022-09-16T12:06:59;15.50;;;2.33;;
31652;SDS011;18261;53.648;9.910;2022-09-16T12:09:35;17.85;;;2.63;;
31652;SDS011;18261;53.648;9.910;2022-09-16T12:12:09;13.70;;;2.97;;
31652;SDS011;18261;53.648;9.910;2022-09-16T12:14:47;20.40;;;2.97;;
31652;SDS011;18261;53.648;9.910;2022-09-16T12:17:16;15.63;;;2.67;;
31652;SDS011;18261;53.648;9.910;2022-09-16T12:22:12;18.83;;;3.10;;
31652;SDS011;18261;53.648;9.910;2022-09-16T12:24:42;22.13;;;2.70;;
31652;SDS011;18261;53.648;9.910;2022-09-16T12:30:36;11.88;;;1.70;;
31652;SDS011;18261;53.648;9.910;2022-09-16T12:35:13;10.05;;;2.05;;
31652;SDS011;18261;53.648;9.910;2022-09-16T12:40:14;10.20;;;1.77;;
31652;SDS011;18261;53.648;9.910;2022-09-16T12:50:27;10.80;;;2.13;;
31652;SDS011;18261;53.648;9.910;2022-09-16T12:55:47;14.02;;;2.00;;
31652;SDS011;18261;53.648;9.910;2022-09-16T13:01:10;13.02;;;2.50;;
31652;SDS011;18261;53.648;9.910;2022-09-16T13:03:41;14.02;;;1.98;;
31652;SDS011;18261;53.648;9.910;2022-09-16T13:06:17;11.20;;;1.85;;
31652;SDS011;18261;53.648;9.910;2022-09-16T13:08:45;9.80;;;1.48;;
31652;SDS011;18261;53.648;9.910;2022-09-16T13:11:18;8.43;;;1.92;;
31652;SDS011;18261;53.648;9.910;2022-09-16T13:13:46;11.45;;;2.00;;
31652;SDS011;18261;53.648;9.910;2022-09-16T13:16:13;9.95;;;1.65;;
31652;SDS011;18261;53.648;9.910;2022-09-16T13:18:43;10.60;;;1.63;;
31652;SDS011;18261;53.648;9.910;2022-09-16T13:23:42;13.43;;;1.60;;
31652;SDS011;18261;53.648;9.910;2022-09-16T13:26:09;9.18;;;1.70;;
31652;SDS011;18261;53.648;9.910;2022-09-16T13:28:37;11.10;;;1.55;;
31652;SDS011;18261;53.648;9.910;2022-09-16T13:33:37;15.88;;;2.17;;
31652;SDS011;18261;53.648;9.910;2022-09-16T13:36:11;17.65;;;2.33;;
31652;SDS011;18261;53.648;9.910;2022-09-16T13:38:39;14.88;;;2.28;;
31652;SDS011;18261;53.648;9.910;2022-09-16T13:41:05;17.65;;;2.65;;
31652;SDS011;18261;53.648;9.910;2022-09-16T13:46:10;12.70;;;1.95;;
31652;SDS011;18261;53.648;9.910;2022-09-16T13:48:44;12.82;;;2.20;;
31652;SDS011;18261;53.648;9.910;2022-09-16T13:51:16;10.20;;;2.05;;
31652;SDS011;18261;53.648;9.910;2022-09-16T13:53:44;13.25;;;1.63;;
31652;SDS011;18261;53.648;9.910;2022-09-16T13:56:18;9.48;;;1.50;;
31652;SDS011;18261;53.648;9.910;2022-09-16T14:14:30;19.52;;;2.95;;
31652;SDS011;18261;53.648;9.910;2022-09-16T14:16:57;17.17;;;2.45;;
31652;SDS011;18261;53.648;9.910;2022-09-16T14:19:26;18.88;;;2.40;;
31652;SDS011;18261;53.648;9.910;2022-09-16T14:21:59;18.20;;;2.20;;
31652;SDS011;18261;53.648;9.910;2022-09-16T14:24:32;13.85;;;2.38;;
31652;SDS011;18261;53.648;9.910;2022-09-16T14:26:58;11.52;;;1.90;;
31652;SDS011;18261;53.648;9.910;2022-09-16T14:29:24;14.50;;;2.08;;
31652;SDS011;18261;53.648;9.910;2022-09-16T14:31:53;10.80;;;2.03;;
31652;SDS011;18261;53.648;9.910;2022-09-16T14:34:34;15.57;;;1.92;;
31652;SDS011;18261;53.648;9.910;2022-09-16T14:37:01;14.10;;;2.22;;
31652;SDS011;18261;53.648;9.910;2022-09-16T14:39:28;14.57;;;2.67;;
31652;SDS011;18261;53.648;9.910;2022-09-16T14:41:55;8.32;;;1.50;;
31652;SDS011;18261;53.648;9.910;2022-09-16T14:49:28;14.88;;;1.90;;
31652;SDS011;18261;53.648;9.910;2022-09-16T14:51:55;14.02;;;2.35;;
31652;SDS011;18261;53.648;9.910;2022-09-16T14:54:22;16.60;;;2.42;;
31652;SDS011;18261;53.648;9.910;2022-09-16T14:57:02;17.17;;;2.03;;
31652;SDS011;18261;53.648;9.910;2022-09-16T14:59:32;18.10;;;2.55;;
31652;SDS011;18261;53.648;9.910;2022-09-16T15:02:04;17.65;;;2.40;;
31652;SDS011;18261;53.648;9.910;2022-09-16T15:04:32;17.58;;;2.45;;
31652;SDS011;18261;53.648;9.910;2022-09-16T15:07:05;13.98;;;2.38;;
31652;SDS011;18261;53.648;9.910;2022-09-16T15:09:37;12.40;;;3.33;;
31652;SDS011;18261;53.648;9.910;2022-09-16T15:12:11;16.35;;;2.38;;
31652;SDS011;18261;53.648;9.910;2022-09-16T15:17:06;14.40;;;2.10;;
31652;SDS011;18261;53.648;9.910;2022-09-16T15:19:34;11.80;;;1.70;;
31652;SDS011;18261;53.648;9.910;2022-09-16T15:22:00;12.00;;;2.20;;
31652;SDS011;18261;53.648;9.910;2022-09-16T15:24:28;17.63;;;2.60;;
31652;SDS011;18261;53.648;9.910;2022-09-16T15:26:55;17.48;;;2.38;;
31652;SDS011;18261;53.648;9.910;2022-09-16T15:31:48;12.50;;;1.42;;
31652;SDS011;18261;53.648;9.910;2022-09-16T15:36:50;12.85;;;1.92;;
31652;SDS011;18261;53.648;9.910;2022-09-16T15:41:49;14.95;;;2.45;;
31652;SDS011;18261;53.648;9.910;2022-09-16T15:44:26;14.27;;;2.83;;
31652;SDS011;18261;53.648;9.910;2022-09-16T15:46:52;13.02;;;1.88;;
31652;SDS011;18261;53.648;9.910;2022-09-16T15:49:18;14.73;;;2.50;;
31652;SDS011;18261;53.648;9.910;2022-09-16T15:51:45;7.97;;;1.67;;
31652;SDS011;18261;53.648;9.910;2022-09-16T15:54:15;15.30;;;2.67;;
31652;SDS011;18261;53.648;9.910;2022-09-16T15:56:50;19.00;;;2.72;;
31652;SDS011;18261;53.648;9.910;2022-09-16T15:59:19;14.23;;;2.47;;
31652;SDS011;18261;53.648;9.910;2022-09-16T16:01:47;13.90;;;2.50;;
31652;SDS011;18261;53.648;9.910;2022-09-16T16:04:20;18.52;;;2.60;;
31652;SDS011;18261;53.648;9.910;2022-09-16T16:06:51;10.85;;;2.20;;
31652;SDS011;18261;53.648;9.910;2022-09-16T16:14:20;14.65;;;2.78;;
31652;SDS011;18261;53.648;9.910;2022-09-16T16:16:47;15.77;;;3.17;;
31652;SDS011;18261;53.648;9.910;2022-09-16T16:19:13;19.83;;;3.70;;
31652;SDS011;18261;53.648;9.910;2022-09-16T16:21:39;19.27;;;2.78;;
31652;SDS011;18261;53.648;9.910;2022-09-16T16:24:12;22.17;;;3.38;;
31652;SDS011;18261;53.648;9.910;2022-09-16T16:26:38;23.88;;;3.05;;
31652;SDS011;18261;53.648;9.910;2022-09-16T16:29:04;25.40;;;4.45;;
31652;SDS011;18261;53.648;9.910;2022-09-16T16:31:30;22.48;;;3.20;;
31652;SDS011;18261;53.648;9.910;2022-09-16T16:33:57;27.27;;;3.63;;
31652;SDS011;18261;53.648;9.910;2022-09-16T16:36:23;31.05;;;4.00;;
31652;SDS011;18261;53.648;9.910;2022-09-16T16:38:49;20.55;;;3.88;;
31652;SDS011;18261;53.648;9.910;2022-09-16T16:41:19;28.02;;;4.10;;
31652;SDS011;18261;53.648;9.910;2022-09-16T16:43:45;38.47;;;5.03;;
31652;SDS011;18261;53.648;9.910;2022-09-16T16:46:11;37.72;;;4.90;;
31652;SDS011;18261;53.648;9.910;2022-09-16T16:48:36;31.83;;;5.00;;
31652;SDS011;18261;53.648;9.910;2022-09-16T16:51:06;39.80;;;5.72;;
31652;SDS011;18261;53.648;9.910;2022-09-16T16:53:33;32.72;;;4.97;;
31652;SDS011;18261;53.648;9.910;2022-09-16T16:58:31;37.88;;;5.20;;
31652;SDS011;18261;53.648;9.910;2022-09-16T17:01:06;39.88;;;4.70;;
31652;SDS011;18261;53.648;9.910;2022-09-16T17:03:33;38.45;;;5.40;;
31652;SDS011;18261;53.648;9.910;2022-09-16T17:05:58;34.28;;;4.13;;
31652;SDS011;18261;53.648;9.910;2022-09-16T17:08:25;52.78;;;5.78;;
31652;SDS011;18261;53.648;9.910;2022-09-16T17:11:07;50.38;;;5.55;;
31652;SDS011;18261;53.648;9.910;2022-09-16T17:13:34;32.78;;;5.10;;
31652;SDS011;18261;53.648;9.910;2022-09-16T17:16:00;35.50;;;4.63;;
31652;SDS011;18261;53.648;9.910;2022-09-16T17:18:26;34.83;;;4.00;;
31652;SDS011;18261;53.648;9.910;2022-09-16T17:20:52;38.78;;;4.25;;
31652;SDS011;18261;53.648;9.910;2022-09-16T17:23:18;28.35;;;3.83;;
31652;SDS011;18261;53.648;9.910;2022-09-16T17:25:48;24.52;;;3.50;;
31652;SDS011;18261;53.648;9.910;2022-09-16T17:28:15;44.00;;;9.35;;
31652;SDS011;18261;53.648;9.910;2022-09-16T17:30:42;34.35;;;4.82;;
31652;SDS011;18261;53.648;9.910;2022-09-16T17:33:08;34.60;;;5.22;;
31652;SDS011;18261;53.648;9.910;2022-09-16T17:35:34;41.03;;;6.35;;
31652;SDS011;18261;53.648;9.910;2022-09-16T17:38:01;35.97;;;5.53;;
31652;SDS011;18261;53.648;9.910;2022-09-16T17:40:28;45.83;;;6.05;;